Time;durP1;ratioP1;P1;durP2;ratioP2;P2;SDS_P1;SDS_P2;PMS_P1;PMS_P2;Temp;Humidity;BMP_temperature;BMP_pressure;BME280_temperature;BME280_humidity;BME280_pressure;Samples;Min_cycle;Max_cycle;Signal;HPM_P1;HPM_P2
2023/01/21 00:00:13;;;;;;;;;;;;;;;;;;5036758;28;19945;-76
2023/01/21 00:02:39;;;;;;;;;;;;;;;;;;5036543;28;19916;-76
2023/01/21 00:05:05;;;;;;;;;;;;;;;;;;5035241;28;19909;-76
2023/01/21 00:07:31;;;;;;;;;;;;;;;;;;5036482;28;20010;-76
2023/01/21 00:09:57;;;;;;;;;;;;;;;;;;5036723;28;19909;-76
2023/01/21 00:12:23;;;;;;;;;;;;;;;;;;5036432;28;20441;-75
2023/01/21 00:14:49;;;;;;;;;;;;;;;;;;5036808;28;19941;-76
2023/01/21 00:17:15;;;;;;;;;;;;;;;;;;5036298;28;19917;-76
2023/01/21 00:19:41;;;;;;;;;;;;;;;;;;5036261;28;19939;-76
2023/01/21 00:22:07;;;;;;;;;;;;;;;;;;5036204;28;19909;-76
2023/01/21 00:24:33;;;;;;;;;;;;;;;;;;5036441;28;20016;-76
2023/01/21 00:26:58;;;;;;;;;;;;;;;;;;5036028;28;20428;-75
2023/01/21 00:29:25;;;;;;;;;;;;;;;;;;5035725;28;19910;-75
2023/01/21 00:31:51;;;;;;;;;;;;;;;;;;5036371;28;19913;-76
2023/01/21 00:34:17;;;;;;;;;;;;;;;;;;5036145;28;19909;-76
2023/01/21 00:36:43;;;;;;;;;;;;;;;;;;5036059;28;19909;-76
2023/01/21 00:39:09;;;;;;;;;;;;;;;;;;5035712;28;19917;-76
2023/01/21 00:41:36;;;;;;;;;;;;;;;;;;5036324;28;20385;-75
2023/01/21 00:44:02;;;;;;;;;;;;;;;;;;5036108;28;19913;-76
2023/01/21 00:46:28;;;;;;;;;;;;;;;;;;5035790;28;19920;-76
2023/01/21 00:48:54;;;;;;;;;;;;;;;;;;5035756;28;20411;-76
2023/01/21 00:51:20;;;;;;;;;;;;;;;;;;5035683;28;20365;-77
2023/01/21 00:53:46;;;;;;;;;;;;;;;;;;5036040;28;20004;-76
2023/01/21 00:56:12;;;;;;;;;;;;;;;;;;5035815;28;19956;-76
2023/01/21 00:58:38;;;;;;;;;;;;;;;;;;5035529;28;19916;-77
2023/01/21 01:01:04;;;;;;;;;;;;;;;;;;5035677;28;19916;-76
2023/01/21 01:03:30;;;;;;;;;;;;;;;;;;5034265;28;20365;-75
2023/01/21 01:05:56;;;;;;;;;;;;;;;;;;5035768;28;19909;-75
2023/01/21 01:08:22;;;;;;;;;;;;;;;;;;5035347;28;20358;-75
2023/01/21 01:10:48;;;;;;;;;;;;;;;;;;5034010;28;19939;-75
2023/01/21 01:13:14;;;;;;;;;;;;;;;;;;5035272;28;20004;-75
2023/01/21 01:15:40;;;;;;;;;;;;;;;;;;5035233;28;19980;-75
2023/01/21 01:18:06;;;;;;;;;;;;;;;;;;5035655;28;19909;-76
2023/01/21 01:20:31;;;;;;;;;;;;;;;;;;5035110;28;19956;-76
2023/01/21 01:22:57;;;;;;;;;;;;;;;;;;5035051;28;19956;-76
2023/01/21 01:25:23;;;;;;;;;;;;;;;;;;5033741;28;19909;-76
2023/01/21 01:27:49;;;;;;;;;;;;;;;;;;5034889;28;19913;-76
2023/01/21 01:30:15;;;;;;;;;;;;;;;;;;5035604;28;20000;-76
2023/01/21 01:32:41;;;;;;;;;;;;;;;;;;5035058;28;19920;-76
2023/01/21 01:35:07;;;;;;;;;;;;;;;;;;5034936;28;20353;-75
2023/01/21 01:37:33;;;;;;;;;;;;;;;;;;5034998;28;20373;-76
2023/01/21 01:39:59;;;;;;;;;;;;;;;;;;5033434;28;19928;-76
2023/01/21 01:42:25;;;;;;;;;;;;;;;;;;5034673;28;19914;-76
2023/01/21 01:44:51;;;;;;;;;;;;;;;;;;5033368;28;19939;-75
2023/01/21 01:47:17;;;;;;;;;;;;;;;;;;5034502;28;20019;-76
2023/01/21 01:49:43;;;;;;;;;;;;;;;;;;5034537;28;19994;-76
2023/01/21 01:52:09;;;;;;;;;;;;;;;;;;5034700;28;19956;-76
2023/01/21 01:54:35;;;;;;;;;;;;;;;;;;5034504;28;19909;-76
2023/01/21 01:57:01;;;;;;;;;;;;;;;;;;5033197;28;20377;-76
2023/01/21 01:59:27;;;;;;;;;;;;;;;;;;5034362;28;19917;-75
2023/01/21 02:01:53;;;;;;;;;;;;;;;;;;5034370;28;19909;-75
2023/01/21 02:04:18;;;;;;;;;;;;;;;;;;5034599;28;20003;-76
2023/01/21 02:06:44;;;;;;;;;;;;;;;;;;5034501;28;19953;-76
2023/01/21 02:09:11;;;;;;;;;;;;;;;;;;5034230;28;19909;-76
2023/01/21 02:11:37;;;;;;;;;;;;;;;;;;5034451;28;20278;-75
2023/01/21 02:14:03;;;;;;;;;;;;;;;;;;5034087;28;19916;-76
2023/01/21 02:16:28;;;;;;;;;;;;;;;;;;5034232;28;19917;-76
2023/01/21 02:18:54;;;;;;;;;;;;;;;;;;5034268;28;19959;-76
2023/01/21 02:21:20;;;;;;;;;;;;;;;;;;5034053;28;19909;-75
2023/01/21 02:23:46;;;;;;;;;;;;;;;;;;5034009;28;19917;-76
2023/01/21 02:26:12;;;;;;;;;;;;;;;;;;5032419;28;19913;-76
2023/01/21 02:28:38;;;;;;;;;;;;;;;;;;5034079;28;19909;-76
2023/01/21 02:31:04;;;;;;;;;;;;;;;;;;5033946;28;19932;-75
2023/01/21 02:33:30;;;;;;;;;;;;;;;;;;5033938;28;20259;-76
2023/01/21 02:35:56;;;;;;;;;;;;;;;;;;5033871;28;19909;-76
2023/01/21 02:38:22;;;;;;;;;;;;;;;;;;5032469;28;19917;-75
2023/01/21 02:40:48;;;;;;;;;;;;;;;;;;5032145;28;20439;-75
2023/01/21 02:43:13;;;;;;;;;;;;;;;;;;5033761;28;19909;-76
2023/01/21 02:45:39;;;;;;;;;;;;;;;;;;5033778;28;19962;-76
2023/01/21 02:48:05;;;;;;;;;;;;;;;;;;5033830;28;19913;-76
2023/01/21 02:50:32;;;;;;;;;;;;;;;;;;5035027;28;19928;-76
2023/01/21 02:52:57;;;;;;;;;;;;;;;;;;5040733;28;19916;-76
2023/01/21 02:55:23;;;;;;;;;;;;;;;;;;5040231;28;19909;-76
2023/01/21 02:57:49;;;;;;;;;;;;;;;;;;5040490;28;20320;-76
2023/01/21 03:00:15;;;;;;;;;;;;;;;;;;5040233;28;20361;-76
2023/01/21 03:02:41;;;;;;;;;;;;;;;;;;5040207;28;20008;-76
2023/01/21 03:05:08;;;;;;;;;;;;;;;;;;5040398;28;19916;-76
2023/01/21 03:07:34;;;;;;;;;;;;;;;;;;5040114;28;19921;-76
2023/01/21 03:10:00;;;;;;;;;;;;;;;;;;5040279;28;19909;-75
2023/01/21 03:12:26;;;;;;;;;;;;;;;;;;5038835;28;19916;-76
2023/01/21 03:17:37;;;;;;;;;;;;;;;;;;5039858;28;19960;-76
2023/01/21 03:20:03;;;;;;;;;;;;;;;;;;5040353;28;19909;-76
2023/01/21 03:22:29;;;;;;;;;;;;;;;;;;5040022;28;20292;-76
2023/01/21 03:24:55;;;;;;;;;;;;;;;;;;5039954;28;19995;-76
2023/01/21 03:27:21;;;;;;;;;;;;;;;;;;5040196;28;20373;-75
2023/01/21 03:29:47;;;;;;;;;;;;;;;;;;5040012;28;19954;-75
2023/01/21 03:32:13;;;;;;;;;;;;;;;;;;5039954;28;19996;-76
2023/01/21 03:34:40;;;;;;;;;;;;;;;;;;5040006;28;19909;-76
2023/01/21 03:37:07;;;;;;;;;;;;;;;;;;5038643;28;19909;-75
2023/01/21 03:39:32;;;;;;;;;;;;;;;;;;5039639;28;19963;-75
2023/01/21 03:41:58;;;;;;;;;;;;;;;;;;5039901;28;19910;-76
2023/01/21 03:44:24;;;;;;;;;;;;;;;;;;5039926;28;19913;-76
2023/01/21 03:46:50;;;;;;;;;;;;;;;;;;5040058;28;19927;-76
2023/01/21 03:49:17;;;;;;;;;;;;;;;;;;5039836;28;19940;-76
2023/01/21 03:51:43;;;;;;;;;;;;;;;;;;5039900;28;19909;-76
2023/01/21 03:54:09;;;;;;;;;;;;;;;;;;5039795;28;20328;-75
2023/01/21 03:56:35;;;;;;;;;;;;;;;;;;5040249;28;19909;-76
2023/01/21 03:59:01;;;;;;;;;;;;;;;;;;5040112;28;19963;-76
2023/01/21 04:01:27;;;;;;;;;;;;;;;;;;5039689;28;19909;-76
2023/01/21 04:03:53;;;;;;;;;;;;;;;;;;5036000;28;19998;-76
2023/01/21 04:06:19;;;;;;;;;;;;;;;;;;5036431;28;19913;-76
2023/01/21 04:08:45;;;;;;;;;;;;;;;;;;5036544;28;19910;-75
2023/01/21 04:11:11;;;;;;;;;;;;;;;;;;5036598;28;19921;-76
2023/01/21 04:13:37;;;;;;;;;;;;;;;;;;5036372;28;20292;-76
2023/01/21 04:16:02;;;;;;;;;;;;;;;;;;5036602;28;20004;-76
2023/01/21 04:18:28;;;;;;;;;;;;;;;;;;5036316;28;19910;-76
2023/01/21 04:20:54;;;;;;;;;;;;;;;;;;5036649;28;19951;-76
2023/01/21 04:23:20;;;;;;;;;;;;;;;;;;5036286;28;19909;-76
2023/01/21 04:25:46;;;;;;;;;;;;;;;;;;5036298;28;19917;-76
2023/01/21 04:28:12;;;;;;;;;;;;;;;;;;5036125;28;19913;-76
2023/01/21 04:30:38;;;;;;;;;;;;;;;;;;5036223;28;20284;-76
2023/01/21 04:33:04;;;;;;;;;;;;;;;;;;5036388;28;19996;-76
2023/01/21 04:35:30;;;;;;;;;;;;;;;;;;5036238;28;19952;-75
2023/01/21 04:37:56;;;;;;;;;;;;;;;;;;5035994;28;19912;-76
2023/01/21 04:40:22;;;;;;;;;;;;;;;;;;5035695;28;19932;-76
2023/01/21 04:42:48;;;;;;;;;;;;;;;;;;5034600;28;19913;-75
2023/01/21 04:45:14;;;;;;;;;;;;;;;;;;5035786;28;19940;-75
2023/01/21 04:47:40;;;;;;;;;;;;;;;;;;5034390;28;19999;-76
2023/01/21 04:50:05;;;;;;;;;;;;;;;;;;5035725;28;19959;-75
2023/01/21 04:52:31;;;;;;;;;;;;;;;;;;5034350;28;19917;-77
2023/01/21 04:54:57;;;;;;;;;;;;;;;;;;5035780;28;20320;-76
2023/01/21 04:57:23;;;;;;;;;;;;;;;;;;5034315;28;20284;-76
2023/01/21 04:59:49;;;;;;;;;;;;;;;;;;5035652;28;20357;-76
2023/01/21 05:02:15;;;;;;;;;;;;;;;;;;5035536;28;19949;-76
2023/01/21 05:04:41;;;;;;;;;;;;;;;;;;5035493;28;19971;-75
2023/01/21 05:07:07;;;;;;;;;;;;;;;;;;5035493;28;19913;-75
2023/01/21 05:09:33;;;;;;;;;;;;;;;;;;5035378;28;19916;-76
2023/01/21 05:11:59;;;;;;;;;;;;;;;;;;5035564;28;19909;-76
2023/01/21 05:14:25;;;;;;;;;;;;;;;;;;5035089;28;19975;-76
2023/01/21 05:16:51;;;;;;;;;;;;;;;;;;5035255;28;20393;-76
2023/01/21 05:19:17;;;;;;;;;;;;;;;;;;5035321;28;20385;-76
2023/01/21 05:21:43;;;;;;;;;;;;;;;;;;5033978;28;19909;-76
2023/01/21 05:24:09;;;;;;;;;;;;;;;;;;5033737;28;20475;-76
2023/01/21 05:26:35;;;;;;;;;;;;;;;;;;5034916;28;19913;-76
2023/01/21 05:29:01;;;;;;;;;;;;;;;;;;5034948;28;19909;-76
2023/01/21 05:31:26;;;;;;;;;;;;;;;;;;5035356;28;19955;-75
2023/01/21 05:33:52;;;;;;;;;;;;;;;;;;5035235;28;19909;-76
2023/01/21 05:36:18;;;;;;;;;;;;;;;;;;5034843;28;19963;-76
2023/01/21 05:38:44;;;;;;;;;;;;;;;;;;5034830;28;19909;-75
2023/01/21 05:41:10;;;;;;;;;;;;;;;;;;5034402;28;19925;-76
2023/01/21 05:43:36;;;;;;;;;;;;;;;;;;5034708;28;19960;-76
2023/01/21 05:46:02;;;;;;;;;;;;;;;;;;5035058;28;20293;-75
2023/01/21 05:48:28;;;;;;;;;;;;;;;;;;5034646;28;20431;-76
2023/01/21 05:50:54;;;;;;;;;;;;;;;;;;5034598;28;20004;-77
2023/01/21 05:53:20;;;;;;;;;;;;;;;;;;5034550;28;19975;-76
2023/01/21 05:55:46;;;;;;;;;;;;;;;;;;5034510;28;20308;-76
2023/01/21 05:58:12;;;;;;;;;;;;;;;;;;5034866;28;19914;-76
2023/01/21 06:00:40;;;;;;;;;;;;;;;;;;5034336;28;20003;-75
2023/01/21 06:03:06;;;;;;;;;;;;;;;;;;5034344;28;19909;-76
2023/01/21 06:05:32;;;;;;;;;;;;;;;;;;5034456;28;19909;-76
2023/01/21 06:07:58;;;;;;;;;;;;;;;;;;5032923;28;19913;-76
2023/01/21 06:10:24;;;;;;;;;;;;;;;;;;5032909;28;19947;-76
2023/01/21 06:12:53;;;;;;;;;;;;;;;;;;5034445;28;19913;-76
2023/01/21 06:15:18;;;;;;;;;;;;;;;;;;5034309;28;19941;-76
2023/01/21 06:17:44;;;;;;;;;;;;;;;;;;5034222;28;19943;-76
2023/01/21 06:20:10;;;;;;;;;;;;;;;;;;5032739;28;19960;-75
2023/01/21 06:22:36;;;;;;;;;;;;;;;;;;5032791;28;19913;-76
2023/01/21 06:25:02;;;;;;;;;;;;;;;;;;5033757;28;19910;-75
2023/01/21 06:27:28;;;;;;;;;;;;;;;;;;5033808;28;19920;-76
2023/01/21 06:29:54;;;;;;;;;;;;;;;;;;5033970;28;19909;-76
2023/01/21 06:32:20;;;;;;;;;;;;;;;;;;5033917;28;19978;-76
2023/01/21 06:34:46;;;;;;;;;;;;;;;;;;5034053;28;19909;-75
2023/01/21 06:37:12;;;;;;;;;;;;;;;;;;5032454;28;19919;-76
2023/01/21 06:39:38;;;;;;;;;;;;;;;;;;5033655;28;20424;-76
2023/01/21 06:42:04;;;;;;;;;;;;;;;;;;5033752;28;19916;-76
2023/01/21 06:44:32;;;;;;;;;;;;;;;;;;5033254;28;20199;-76
2023/01/21 06:46:57;;;;;;;;;;;;;;;;;;5033750;28;20351;-76
2023/01/21 06:49:23;;;;;;;;;;;;;;;;;;5033872;28;20431;-76
2023/01/21 06:51:50;;;;;;;;;;;;;;;;;;5033665;28;19909;-75
2023/01/21 06:54:16;;;;;;;;;;;;;;;;;;5032453;28;19955;-76
2023/01/21 06:56:43;;;;;;;;;;;;;;;;;;5033713;28;19913;-75
2023/01/21 06:59:08;;;;;;;;;;;;;;;;;;5033770;28;20309;-75
2023/01/21 07:01:34;;;;;;;;;;;;;;;;;;5033720;28;19935;-76
2023/01/21 07:04:01;;;;;;;;;;;;;;;;;;5034108;28;19996;-76
2023/01/21 07:06:27;;;;;;;;;;;;;;;;;;5034056;28;20011;-76
2023/01/21 07:08:53;;;;;;;;;;;;;;;;;;5032289;28;20399;-75
2023/01/21 07:11:19;;;;;;;;;;;;;;;;;;5032228;28;19909;-75
2023/01/21 07:13:45;;;;;;;;;;;;;;;;;;5033530;28;19936;-76
2023/01/21 07:16:11;;;;;;;;;;;;;;;;;;5033507;28;19909;-76
2023/01/21 07:18:37;;;;;;;;;;;;;;;;;;5033647;28;19963;-77
2023/01/21 07:21:03;;;;;;;;;;;;;;;;;;5033472;28;19916;-77
2023/01/21 07:23:29;;;;;;;;;;;;;;;;;;5033477;28;19910;-77
2023/01/21 07:25:55;;;;;;;;;;;;;;;;;;5033376;28;19932;-76
2023/01/21 07:28:21;;;;;;;;;;;;;;;;;;5033689;28;20361;-76
2023/01/21 07:30:46;;;;;;;;;;;;;;;;;;5033339;28;19916;-76
2023/01/21 07:33:13;;;;;;;;;;;;;;;;;;5033371;28;19916;-76
2023/01/21 07:35:39;;;;;;;;;;;;;;;;;;5033329;28;19909;-76
2023/01/21 07:38:05;;;;;;;;;;;;;;;;;;5034502;28;19909;-76
2023/01/21 07:40:31;;;;;;;;;;;;;;;;;;5035607;28;19925;-76
2023/01/21 07:42:57;;;;;;;;;;;;;;;;;;5037211;28;19992;-76
2023/01/21 07:45:23;;;;;;;;;;;;;;;;;;5036877;28;19948;-76
2023/01/21 07:47:49;;;;;;;;;;;;;;;;;;5036799;28;20281;-76
2023/01/21 07:50:15;;;;;;;;;;;;;;;;;;5037151;28;20293;-76
2023/01/21 07:52:41;;;;;;;;;;;;;;;;;;5035552;28;19915;-76
2023/01/21 07:55:07;;;;;;;;;;;;;;;;;;5036746;28;19916;-76
2023/01/21 07:57:33;;;;;;;;;;;;;;;;;;5037051;28;19917;-76
2023/01/21 07:59:59;;;;;;;;;;;;;;;;;;5035410;28;19909;-76
2023/01/21 08:02:25;;;;;;;;;;;;;;;;;;5036860;28;19974;-76
2023/01/21 08:04:50;;;;;;;;;;;;;;;;;;5036555;28;20344;-76
2023/01/21 08:07:16;;;;;;;;;;;;;;;;;;5036475;28;19968;-76
2023/01/21 08:09:42;;;;;;;;;;;;;;;;;;5036547;28;19960;-76
2023/01/21 08:12:08;;;;;;;;;;;;;;;;;;5036559;28;19909;-76
2023/01/21 08:14:34;;;;;;;;;;;;;;;;;;5036487;28;19916;-76
2023/01/21 08:17:00;;;;;;;;;;;;;;;;;;5036498;28;19971;-76
2023/01/21 08:19:26;;;;;;;;;;;;;;;;;;5036384;28;19916;-76
2023/01/21 08:21:52;;;;;;;;;;;;;;;;;;5036417;28;19913;-76
2023/01/21 08:24:18;;;;;;;;;;;;;;;;;;5036337;28;19963;-76
2023/01/21 08:26:44;;;;;;;;;;;;;;;;;;5036415;28;19979;-77
2023/01/21 08:29:10;;;;;;;;;;;;;;;;;;5036148;28;19980;-76
2023/01/21 08:31:36;;;;;;;;;;;;;;;;;;5036302;28;19928;-76
2023/01/21 08:34:02;;;;;;;;;;;;;;;;;;5036221;28;19920;-76
2023/01/21 08:36:28;;;;;;;;;;;;;;;;;;5034584;28;19978;-76
2023/01/21 08:38:54;;;;;;;;;;;;;;;;;;5034653;28;19909;-76
2023/01/21 08:41:20;;;;;;;;;;;;;;;;;;5036007;28;19928;-76
2023/01/21 08:43:45;;;;;;;;;;;;;;;;;;5035924;28;19952;-77
2023/01/21 08:46:11;;;;;;;;;;;;;;;;;;5036016;28;19916;-77
2023/01/21 08:48:37;;;;;;;;;;;;;;;;;;5035803;28;19959;-76
2023/01/21 08:51:03;;;;;;;;;;;;;;;;;;5034652;28;20003;-76
2023/01/21 08:53:29;;;;;;;;;;;;;;;;;;5036042;28;19909;-76
2023/01/21 08:55:55;;;;;;;;;;;;;;;;;;5035843;28;19963;-77
2023/01/21 08:58:21;;;;;;;;;;;;;;;;;;5035773;28;20349;-76
2023/01/21 09:00:47;;;;;;;;;;;;;;;;;;5034482;28;19916;-76
2023/01/21 09:03:15;;;;;;;;;;;;;;;;;;5035710;28;19917;-76
2023/01/21 09:05:41;;;;;;;;;;;;;;;;;;5035604;28;19940;-77
2023/01/21 09:08:07;;;;;;;;;;;;;;;;;;5035751;28;19963;-77
2023/01/21 09:13:18;;;;;;;;;;;;;;;;;;5035142;28;19959;-78
2023/01/21 09:15:44;;;;;;;;;;;;;;;;;;5033903;28;19909;-77
2023/01/21 09:18:10;;;;;;;;;;;;;;;;;;5035278;28;19916;-77
2023/01/21 09:20:36;;;;;;;;;;;;;;;;;;5035323;28;19913;-77
2023/01/21 09:23:22;;;;;;;;;;;;;;;;;;5035314;28;19913;-78
2023/01/21 09:25:48;;;;;;;;;;;;;;;;;;5034635;28;19936;-78
2023/01/21 09:28:15;;;;;;;;;;;;;;;;;;5035170;28;20003;-77
2023/01/21 09:30:41;;;;;;;;;;;;;;;;;;5034910;28;20369;-77
2023/01/21 09:33:07;;;;;;;;;;;;;;;;;;5034790;28;19963;-77
2023/01/21 09:35:32;;;;;;;;;;;;;;;;;;5034798;28;20284;-77
2023/01/21 09:37:58;;;;;;;;;;;;;;;;;;5034988;28;20372;-77
2023/01/21 09:40:24;;;;;;;;;;;;;;;;;;5034514;28;19921;-78
2023/01/21 09:42:50;;;;;;;;;;;;;;;;;;5017487;28;19927;-75
2023/01/21 09:45:16;;;;;;;;;;;;;;;;;;5054757;28;19909;-76
2023/01/21 09:47:42;;;;;;;;;;;;;;;;;;5054675;28;19916;-75
2023/01/21 09:50:08;;;;;;;;;;;;;;;;;;5054738;28;19962;-75
2023/01/21 09:52:34;;;;;;;;;;;;;;;;;;5054372;28;19951;-74
2023/01/21 09:55:00;;;;;;;;;;;;;;;;;;5054488;28;19909;-75
2023/01/21 09:57:26;;;;;;;;;;;;;;;;;;5054167;28;19943;-75
2023/01/21 09:59:52;;;;;;;;;;;;;;;;;;5054218;28;19939;-75
2023/01/21 10:02:18;;;;;;;;;;;;;;;;;;5053652;28;19979;-75
2023/01/21 10:04:44;;;;;;;;;;;;;;;;;;5054476;28;19909;-76
2023/01/21 10:07:10;;;;;;;;;;;;;;;;;;5052815;28;20348;-75
2023/01/21 10:09:36;;;;;;;;;;;;;;;;;;5054347;28;19909;-75
2023/01/21 10:12:02;;;;;;;;;;;;;;;;;;5050073;28;19913;-74
2023/01/21 10:14:28;;;;;;;;;;;;;;;;;;5034283;28;19916;-76
2023/01/21 10:16:53;;;;;;;;;;;;;;;;;;5034407;28;19909;-75
2023/01/21 10:19:19;;;;;;;;;;;;;;;;;;5033061;28;19913;-78
2023/01/21 10:21:45;;;;;;;;;;;;;;;;;;5033830;28;19916;-77
2023/01/21 10:24:11;;;;;;;;;;;;;;;;;;5033076;28;20079;-78
2023/01/21 10:26:37;;;;;;;;;;;;;;;;;;5034090;28;20278;-77
2023/01/21 10:29:04;;;;;;;;;;;;;;;;;;5034148;28;19945;-77
2023/01/21 10:31:30;;;;;;;;;;;;;;;;;;5034139;28;19909;-77
2023/01/21 10:33:55;;;;;;;;;;;;;;;;;;5033530;28;19988;-76
2023/01/21 10:36:21;;;;;;;;;;;;;;;;;;5034406;28;19940;-77
2023/01/21 10:38:47;;;;;;;;;;;;;;;;;;5034223;28;19916;-76
2023/01/21 10:41:13;;;;;;;;;;;;;;;;;;5032079;28;19921;-75
2023/01/21 10:43:39;;;;;;;;;;;;;;;;;;5015491;28;19917;-75
2023/01/21 10:46:05;;;;;;;;;;;;;;;;;;5033632;28;19916;-77
2023/01/21 10:48:31;;;;;;;;;;;;;;;;;;5033803;28;19913;-74
2023/01/21 10:50:57;;;;;;;;;;;;;;;;;;5032721;28;19910;-75
2023/01/21 10:53:23;;;;;;;;;;;;;;;;;;5033465;28;19909;-77
2023/01/21 10:55:49;;;;;;;;;;;;;;;;;;5033747;28;20301;-75
2023/01/21 10:58:15;;;;;;;;;;;;;;;;;;5033455;28;20058;-75
2023/01/21 11:00:46;;;;;;;;;;;;;;;;;;5034004;28;20409;-75
2023/01/21 11:03:12;;;;;;;;;;;;;;;;;;5030601;28;19917;-78
2023/01/21 11:05:38;;;;;;;;;;;;;;;;;;5033696;28;20250;-75
2023/01/21 11:08:03;;;;;;;;;;;;;;;;;;5033499;28;20369;-75
2023/01/21 11:10:29;;;;;;;;;;;;;;;;;;5032033;28;20377;-76
2023/01/21 11:12:55;;;;;;;;;;;;;;;;;;5036301;28;19917;-76
2023/01/21 11:15:21;;;;;;;;;;;;;;;;;;5037799;28;20396;-75
2023/01/21 11:17:47;;;;;;;;;;;;;;;;;;5037236;28;19909;-76
2023/01/21 11:20:13;;;;;;;;;;;;;;;;;;5037098;28;19910;-76
2023/01/21 11:22:41;;;;;;;;;;;;;;;;;;5037741;28;20004;-75
2023/01/21 11:25:07;;;;;;;;;;;;;;;;;;5037146;28;19967;-76
2023/01/21 11:27:33;;;;;;;;;;;;;;;;;;5037329;28;19913;-75
2023/01/21 11:29:59;;;;;;;;;;;;;;;;;;5037152;28;20307;-76
2023/01/21 11:32:26;;;;;;;;;;;;;;;;;;5037657;28;20003;-76
2023/01/21 11:34:52;;;;;;;;;;;;;;;;;;5037546;28;20284;-76
2023/01/21 11:37:18;;;;;;;;;;;;;;;;;;5036857;28;19915;-76
2023/01/21 11:39:44;;;;;;;;;;;;;;;;;;5036646;28;19921;-76
2023/01/21 11:42:09;;;;;;;;;;;;;;;;;;5037073;28;20302;-76
2023/01/21 11:44:35;;;;;;;;;;;;;;;;;;5036381;28;19909;-75
2023/01/21 11:47:01;;;;;;;;;;;;;;;;;;5035090;28;20161;-76
2023/01/21 11:49:27;;;;;;;;;;;;;;;;;;5034663;28;19909;-76
2023/01/21 11:51:53;;;;;;;;;;;;;;;;;;5036095;28;19978;-76
2023/01/21 11:54:19;;;;;;;;;;;;;;;;;;5036194;28;19916;-76
2023/01/21 11:56:45;;;;;;;;;;;;;;;;;;5036103;28;19909;-77
2023/01/21 11:59:11;;;;;;;;;;;;;;;;;;5035073;28;19999;-76
2023/01/21 12:01:37;;;;;;;;;;;;;;;;;;5034335;28;19952;-77
2023/01/21 12:04:03;;;;;;;;;;;;;;;;;;5034468;28;19910;-76
2023/01/21 12:06:29;;;;;;;;;;;;;;;;;;5034410;28;19917;-77
2023/01/21 12:08:55;;;;;;;;;;;;;;;;;;5034737;28;20395;-76
2023/01/21 12:11:21;;;;;;;;;;;;;;;;;;5053343;28;19909;-75
2023/01/21 12:13:48;;;;;;;;;;;;;;;;;;5053812;28;19916;-76
2023/01/21 12:16:13;;;;;;;;;;;;;;;;;;5054678;28;19932;-76
2023/01/21 12:18:39;;;;;;;;;;;;;;;;;;5055835;28;20368;-76
2023/01/21 12:21:05;;;;;;;;;;;;;;;;;;5055504;28;19916;-76
2023/01/21 12:23:31;;;;;;;;;;;;;;;;;;5054835;28;19915;-75
2023/01/21 12:25:57;;;;;;;;;;;;;;;;;;5055275;28;19909;-75
2023/01/21 12:28:23;;;;;;;;;;;;;;;;;;5055503;28;20007;-76
2023/01/21 12:30:49;;;;;;;;;;;;;;;;;;5055146;28;19952;-76
2023/01/21 12:33:15;;;;;;;;;;;;;;;;;;5055663;28;20256;-77
2023/01/21 12:35:41;;;;;;;;;;;;;;;;;;5054237;28;19909;-76
2023/01/21 12:38:07;;;;;;;;;;;;;;;;;;5055604;28;19916;-76
2023/01/21 12:40:33;;;;;;;;;;;;;;;;;;5054764;28;19921;-76
2023/01/21 12:42:59;;;;;;;;;;;;;;;;;;5055364;28;19932;-77
2023/01/21 12:45:25;;;;;;;;;;;;;;;;;;5055366;28;20254;-76
2023/01/21 12:47:50;;;;;;;;;;;;;;;;;;5055286;28;20369;-77
2023/01/21 12:50:16;;;;;;;;;;;;;;;;;;5055029;28;19915;-76
2023/01/21 12:52:42;;;;;;;;;;;;;;;;;;5055222;28;20007;-77
2023/01/21 12:55:08;;;;;;;;;;;;;;;;;;5055307;28;19909;-76
2023/01/21 12:57:35;;;;;;;;;;;;;;;;;;5053756;28;20377;-76
2023/01/21 13:00:01;;;;;;;;;;;;;;;;;;5054745;28;19916;-76
2023/01/21 13:02:26;;;;;;;;;;;;;;;;;;5055107;28;19909;-76
2023/01/21 13:04:52;;;;;;;;;;;;;;;;;;5055074;28;20023;-76
2023/01/21 13:07:18;;;;;;;;;;;;;;;;;;5054923;28;20348;-77
2023/01/21 13:09:44;;;;;;;;;;;;;;;;;;5054661;28;20373;-76
2023/01/21 13:12:10;;;;;;;;;;;;;;;;;;5054889;28;19916;-76
2023/01/21 13:14:36;;;;;;;;;;;;;;;;;;5054829;28;19913;-76
2023/01/21 13:17:02;;;;;;;;;;;;;;;;;;5054672;28;19924;-76
2023/01/21 13:19:28;;;;;;;;;;;;;;;;;;5053296;28;19952;-76
2023/01/21 13:21:54;;;;;;;;;;;;;;;;;;5034768;28;19909;-76
2023/01/21 13:24:20;;;;;;;;;;;;;;;;;;5034693;28;19909;-76
2023/01/21 13:26:46;;;;;;;;;;;;;;;;;;5034637;28;19909;-76
2023/01/21 13:29:12;;;;;;;;;;;;;;;;;;5034824;28;20393;-76
2023/01/21 13:31:38;;;;;;;;;;;;;;;;;;5034066;28;19909;-76
2023/01/21 13:34:03;;;;;;;;;;;;;;;;;;5034407;28;20354;-76
2023/01/21 13:36:29;;;;;;;;;;;;;;;;;;5034319;28;19996;-76
2023/01/21 13:38:55;;;;;;;;;;;;;;;;;;5034219;28;20297;-76
2023/01/21 13:41:21;;;;;;;;;;;;;;;;;;5033950;28;20401;-76
2023/01/21 13:43:53;;;;;;;;;;;;;;;;;;5034304;28;19909;-76
2023/01/21 13:46:19;;;;;;;;;;;;;;;;;;5034445;28;19967;-76
2023/01/21 13:48:45;;;;;;;;;;;;;;;;;;5034119;28;19913;-75
2023/01/21 13:51:11;;;;;;;;;;;;;;;;;;5033818;28;19959;-76
2023/01/21 13:53:37;;;;;;;;;;;;;;;;;;5034234;28;20300;-75
2023/01/21 13:56:03;;;;;;;;;;;;;;;;;;5034099;28;19913;-75
2023/01/21 13:58:28;;;;;;;;;;;;;;;;;;5034068;28;19913;-75
2023/01/21 14:00:54;;;;;;;;;;;;;;;;;;5033546;28;20403;-75
2023/01/21 14:03:20;;;;;;;;;;;;;;;;;;5034027;28;20004;-76
2023/01/21 14:05:46;;;;;;;;;;;;;;;;;;5033950;28;19909;-76
2023/01/21 14:08:12;;;;;;;;;;;;;;;;;;5033976;28;19913;-75
2023/01/21 14:10:39;;;;;;;;;;;;;;;;;;5033394;28;20365;-76
2023/01/21 14:13:05;;;;;;;;;;;;;;;;;;5032376;28;20296;-75
2023/01/21 14:15:31;;;;;;;;;;;;;;;;;;5032563;28;19909;-76
2023/01/21 14:17:58;;;;;;;;;;;;;;;;;;5033635;28;20008;-76
2023/01/21 14:20:24;;;;;;;;;;;;;;;;;;5033534;28;19967;-75
2023/01/21 14:22:50;;;;;;;;;;;;;;;;;;5033342;28;19909;-75
2023/01/21 14:25:16;;;;;;;;;;;;;;;;;;5033468;28;19913;-78
2023/01/21 14:27:42;;;;;;;;;;;;;;;;;;5033638;28;19915;-76
2023/01/21 14:30:08;;;;;;;;;;;;;;;;;;5033246;28;20359;-76
2023/01/21 14:32:34;;;;;;;;;;;;;;;;;;5033530;28;19964;-76
2023/01/21 14:34:59;;;;;;;;;;;;;;;;;;5033436;28;19909;-75
2023/01/21 14:37:25;;;;;;;;;;;;;;;;;;5033184;28;19921;-75
2023/01/21 14:39:51;;;;;;;;;;;;;;;;;;5032950;28;19921;-75
2023/01/21 14:42:23;;;;;;;;;;;;;;;;;;5033378;28;19952;-75
2023/01/21 14:44:49;;;;;;;;;;;;;;;;;;5031842;28;19987;-75
2023/01/21 14:47:15;;;;;;;;;;;;;;;;;;5032871;28;20419;-75
2023/01/21 14:49:41;;;;;;;;;;;;;;;;;;5032945;28;20377;-75
2023/01/21 14:52:07;;;;;;;;;;;;;;;;;;5033313;28;19936;-75
2023/01/21 14:54:33;;;;;;;;;;;;;;;;;;5033351;28;19909;-76
2023/01/21 14:57:00;;;;;;;;;;;;;;;;;;5031880;28;19920;-75
2023/01/21 14:59:26;;;;;;;;;;;;;;;;;;5033261;28;19987;-74
2023/01/21 15:01:52;;;;;;;;;;;;;;;;;;5032818;28;20357;-75
2023/01/21 15:04:18;;;;;;;;;;;;;;;;;;5033239;28;20352;-75
2023/01/21 15:06:44;;;;;;;;;;;;;;;;;;5033341;28;19909;-75
2023/01/21 15:09:10;;;;;;;;;;;;;;;;;;5033049;28;19910;-75
2023/01/21 15:11:36;;;;;;;;;;;;;;;;;;5032862;28;19909;-74
2023/01/21 15:14:02;;;;;;;;;;;;;;;;;;5032826;28;19921;-75
2023/01/21 15:16:28;;;;;;;;;;;;;;;;;;5033029;28;20003;-76
2023/01/21 15:18:54;;;;;;;;;;;;;;;;;;5033068;28;19916;-75
2023/01/21 15:21:20;;;;;;;;;;;;;;;;;;5032591;28;19909;-75
2023/01/21 15:23:46;;;;;;;;;;;;;;;;;;5033136;28;19909;-76
2023/01/21 15:26:12;;;;;;;;;;;;;;;;;;5032711;28;19944;-76
2023/01/21 15:28:39;;;;;;;;;;;;;;;;;;5033003;28;20258;-75
2023/01/21 15:31:05;;;;;;;;;;;;;;;;;;5032604;28;19909;-76
2023/01/21 15:33:31;;;;;;;;;;;;;;;;;;5031518;28;19909;-75
2023/01/21 15:35:57;;;;;;;;;;;;;;;;;;5031683;28;19945;-75
2023/01/21 15:38:23;;;;;;;;;;;;;;;;;;5032971;28;19967;-75
2023/01/21 15:40:49;;;;;;;;;;;;;;;;;;5032399;28;19921;-75
2023/01/21 15:43:15;;;;;;;;;;;;;;;;;;5032858;28;20293;-75
2023/01/21 15:45:41;;;;;;;;;;;;;;;;;;5032849;28;19910;-75
2023/01/21 15:48:07;;;;;;;;;;;;;;;;;;5031544;28;19916;-74
2023/01/21 15:50:33;;;;;;;;;;;;;;;;;;5032459;28;19913;-75
2023/01/21 15:52:59;;;;;;;;;;;;;;;;;;5032802;28;19909;-76
2023/01/21 15:55:25;;;;;;;;;;;;;;;;;;5032745;28;19910;-75
2023/01/21 15:57:51;;;;;;;;;;;;;;;;;;5032770;28;20335;-75
2023/01/21 16:00:16;;;;;;;;;;;;;;;;;;5035407;28;19952;-74
2023/01/21 16:02:42;;;;;;;;;;;;;;;;;;5036627;28;20011;-75
2023/01/21 16:05:08;;;;;;;;;;;;;;;;;;5036245;28;19999;-75
2023/01/21 16:07:34;;;;;;;;;;;;;;;;;;5036207;28;19909;-74
2023/01/21 16:10:00;;;;;;;;;;;;;;;;;;5036014;28;19909;-76
2023/01/21 16:12:26;;;;;;;;;;;;;;;;;;5036046;28;19916;-76
2023/01/21 16:14:52;;;;;;;;;;;;;;;;;;5036165;28;19913;-76
2023/01/21 16:17:18;;;;;;;;;;;;;;;;;;5036058;28;20381;-76
2023/01/21 16:19:44;;;;;;;;;;;;;;;;;;5034770;28;19917;-76
2023/01/21 16:22:10;;;;;;;;;;;;;;;;;;5035533;28;19909;-76
2023/01/21 16:24:36;;;;;;;;;;;;;;;;;;5035811;28;19920;-75
2023/01/21 16:27:02;;;;;;;;;;;;;;;;;;5036064;28;19939;-76
2023/01/21 16:29:28;;;;;;;;;;;;;;;;;;5035794;28;19953;-75
2023/01/21 16:32:00;;;;;;;;;;;;;;;;;;5050365;28;19960;-76
2023/01/21 16:34:26;;;;;;;;;;;;;;;;;;5055667;28;19916;-75
2023/01/21 16:36:52;;;;;;;;;;;;;;;;;;5055455;28;19912;-76
2023/01/21 16:39:18;;;;;;;;;;;;;;;;;;5055245;28;19915;-75
2023/01/21 16:41:44;;;;;;;;;;;;;;;;;;5053591;28;19932;-75